sensor_id;sensor_type;location;lat;lon;timestamp;P1;durP1;ratioP1;P2;durP2;ratioP2
26538;SDS011;14205;43.200;24.170;2022-08-16T00:00:07;12.70;;;7.80;;
26538;SDS011;14205;43.200;24.170;2022-08-16T00:02:36;8.65;;;7.53;;
26538;SDS011;14205;43.200;24.170;2022-08-16T00:05:02;10.60;;;7.13;;
26538;SDS011;14205;43.200;24.170;2022-08-16T00:07:30;8.73;;;7.40;;
26538;SDS011;14205;43.200;24.170;2022-08-16T00:09:57;10.93;;;7.43;;
26538;SDS011;14205;43.200;24.170;2022-08-16T00:12:23;9.88;;;7.88;;
26538;SDS011;14205;43.200;24.170;2022-08-16T00:14:53;10.95;;;8.13;;
26538;SDS011;14205;43.200;24.170;2022-08-16T00:17:20;8.98;;;7.30;;
26538;SDS011;14205;43.200;24.170;2022-08-16T00:19:46;8.50;;;7.65;;
26538;SDS011;14205;43.200;24.170;2022-08-16T00:22:12;10.55;;;7.55;;
26538;SDS011;14205;43.200;24.170;2022-08-16T00:24:37;11.27;;;7.85;;
26538;SDS011;14205;43.200;24.170;2022-08-16T00:27:03;9.57;;;7.35;;
26538;SDS011;14205;43.200;24.170;2022-08-16T00:29:29;9.43;;;8.00;;
26538;SDS011;14205;43.200;24.170;2022-08-16T00:31:55;11.45;;;8.05;;
26538;SDS011;14205;43.200;24.170;2022-08-16T00:34:22;13.73;;;8.52;;
26538;SDS011;14205;43.200;24.170;2022-08-16T00:36:48;10.20;;;8.55;;
26538;SDS011;14205;43.200;24.170;2022-08-16T00:39:14;10.55;;;8.90;;
26538;SDS011;14205;43.200;24.170;2022-08-16T00:41:42;10.13;;;8.10;;
26538;SDS011;14205;43.200;24.170;2022-08-16T00:44:09;10.25;;;8.38;;
26538;SDS011;14205;43.200;24.170;2022-08-16T00:46:40;11.70;;;8.40;;
26538;SDS011;14205;43.200;24.170;2022-08-16T00:49:08;11.10;;;8.77;;
26538;SDS011;14205;43.200;24.170;2022-08-16T00:51:35;9.38;;;8.38;;
26538;SDS011;14205;43.200;24.170;2022-08-16T00:54:01;11.52;;;8.68;;
26538;SDS011;14205;43.200;24.170;2022-08-16T00:56:29;10.10;;;9.02;;
26538;SDS011;14205;43.200;24.170;2022-08-16T00:58:55;11.88;;;8.38;;
26538;SDS011;14205;43.200;24.170;2022-08-16T01:01:21;10.55;;;8.88;;
26538;SDS011;14205;43.200;24.170;2022-08-16T01:03:48;9.73;;;8.38;;
26538;SDS011;14205;43.200;24.170;2022-08-16T01:06:16;10.93;;;8.23;;
26538;SDS011;14205;43.200;24.170;2022-08-16T01:08:46;11.85;;;8.65;;
26538;SDS011;14205;43.200;24.170;2022-08-16T01:11:13;13.00;;;8.85;;
26538;SDS011;14205;43.200;24.170;2022-08-16T01:13:39;13.90;;;9.75;;
26538;SDS011;14205;43.200;24.170;2022-08-16T01:16:13;10.77;;;9.23;;
26538;SDS011;14205;43.200;24.170;2022-08-16T01:18:44;10.70;;;8.75;;
26538;SDS011;14205;43.200;24.170;2022-08-16T01:21:22;10.77;;;9.27;;
26538;SDS011;14205;43.200;24.170;2022-08-16T01:23:57;10.95;;;9.07;;
26538;SDS011;14205;43.200;24.170;2022-08-16T01:26:33;12.55;;;8.45;;
26538;SDS011;14205;43.200;24.170;2022-08-16T01:28:59;10.95;;;8.35;;
26538;SDS011;14205;43.200;24.170;2022-08-16T01:31:28;9.40;;;8.23;;
26538;SDS011;14205;43.200;24.170;2022-08-16T01:33:54;11.32;;;9.15;;
26538;SDS011;14205;43.200;24.170;2022-08-16T01:36:19;12.55;;;8.85;;
26538;SDS011;14205;43.200;24.170;2022-08-16T01:38:46;12.57;;;9.00;;
26538;SDS011;14205;43.200;24.170;2022-08-16T01:41:16;13.75;;;9.93;;
26538;SDS011;14205;43.200;24.170;2022-08-16T01:43:45;10.38;;;8.55;;
26538;SDS011;14205;43.200;24.170;2022-08-16T01:48:46;10.50;;;8.20;;
26538;SDS011;14205;43.200;24.170;2022-08-16T01:51:13;11.13;;;9.32;;
26538;SDS011;14205;43.200;24.170;2022-08-16T01:53:41;11.00;;;9.57;;
26538;SDS011;14205;43.200;24.170;2022-08-16T01:56:08;11.18;;;9.15;;
26538;SDS011;14205;43.200;24.170;2022-08-16T01:58:33;12.98;;;9.20;;
26538;SDS011;14205;43.200;24.170;2022-08-16T02:00:59;13.75;;;8.65;;
26538;SDS011;14205;43.200;24.170;2022-08-16T02:03:24;11.90;;;8.55;;
26538;SDS011;14205;43.200;24.170;2022-08-16T02:05:50;9.55;;;8.43;;
26538;SDS011;14205;43.200;24.170;2022-08-16T02:08:15;14.00;;;8.93;;
26538;SDS011;14205;43.200;24.170;2022-08-16T02:10:41;10.77;;;9.05;;
26538;SDS011;14205;43.200;24.170;2022-08-16T02:13:06;11.93;;;8.98;;
26538;SDS011;14205;43.200;24.170;2022-08-16T02:15:33;12.02;;;8.18;;
26538;SDS011;14205;43.200;24.170;2022-08-16T02:18:01;9.57;;;8.15;;
26538;SDS011;14205;43.200;24.170;2022-08-16T02:20:29;14.70;;;9.52;;
26538;SDS011;14205;43.200;24.170;2022-08-16T02:22:57;10.15;;;9.15;;
26538;SDS011;14205;43.200;24.170;2022-08-16T02:25:25;9.50;;;8.05;;
26538;SDS011;14205;43.200;24.170;2022-08-16T02:27:51;10.30;;;8.65;;
26538;SDS011;14205;43.200;24.170;2022-08-16T02:30:20;11.35;;;8.73;;
26538;SDS011;14205;43.200;24.170;2022-08-16T02:32:48;12.88;;;9.18;;
26538;SDS011;14205;43.200;24.170;2022-08-16T02:35:14;9.80;;;8.65;;
26538;SDS011;14205;43.200;24.170;2022-08-16T02:37:39;11.05;;;9.20;;
26538;SDS011;14205;43.200;24.170;2022-08-16T02:40:05;10.75;;;8.90;;
26538;SDS011;14205;43.200;24.170;2022-08-16T02:42:32;11.50;;;9.02;;
26538;SDS011;14205;43.200;24.170;2022-08-16T02:44:57;12.63;;;9.02;;
26538;SDS011;14205;43.200;24.170;2022-08-16T02:47:22;10.70;;;7.90;;
26538;SDS011;14205;43.200;24.170;2022-08-16T02:49:48;11.70;;;8.48;;
26538;SDS011;14205;43.200;24.170;2022-08-16T02:52:14;11.82;;;8.32;;
26538;SDS011;14205;43.200;24.170;2022-08-16T02:54:39;10.30;;;8.23;;
26538;SDS011;14205;43.200;24.170;2022-08-16T02:57:05;9.10;;;7.97;;
26538;SDS011;14205;43.200;24.170;2022-08-16T02:59:30;10.55;;;7.55;;
26538;SDS011;14205;43.200;24.170;2022-08-16T03:01:56;14.68;;;7.63;;
26538;SDS011;14205;43.200;24.170;2022-08-16T03:04:22;12.68;;;7.88;;
26538;SDS011;14205;43.200;24.170;2022-08-16T03:06:48;9.63;;;8.02;;
26538;SDS011;14205;43.200;24.170;2022-08-16T03:09:15;11.25;;;7.55;;
26538;SDS011;14205;43.200;24.170;2022-08-16T03:11:41;9.18;;;7.68;;
26538;SDS011;14205;43.200;24.170;2022-08-16T03:14:06;12.30;;;7.85;;
26538;SDS011;14205;43.200;24.170;2022-08-16T03:16:32;13.20;;;8.80;;
26538;SDS011;14205;43.200;24.170;2022-08-16T03:18:57;9.73;;;8.05;;
26538;SDS011;14205;43.200;24.170;2022-08-16T03:21:23;9.40;;;8.15;;
26538;SDS011;14205;43.200;24.170;2022-08-16T03:23:49;9.77;;;7.90;;
26538;SDS011;14205;43.200;24.170;2022-08-16T03:26:15;11.57;;;7.97;;
26538;SDS011;14205;43.200;24.170;2022-08-16T03:28:41;11.07;;;8.68;;
26538;SDS011;14205;43.200;24.170;2022-08-16T03:31:07;9.93;;;8.43;;
26538;SDS011;14205;43.200;24.170;2022-08-16T03:33:33;11.10;;;8.00;;
26538;SDS011;14205;43.200;24.170;2022-08-16T03:35:59;12.93;;;9.07;;
26538;SDS011;14205;43.200;24.170;2022-08-16T03:38:25;12.57;;;7.95;;
26538;SDS011;14205;43.200;24.170;2022-08-16T03:40:52;8.90;;;8.00;;
26538;SDS011;14205;43.200;24.170;2022-08-16T03:43:18;13.20;;;8.45;;
26538;SDS011;14205;43.200;24.170;2022-08-16T03:45:43;11.68;;;8.43;;
26538;SDS011;14205;43.200;24.170;2022-08-16T03:48:09;9.18;;;8.13;;
26538;SDS011;14205;43.200;24.170;2022-08-16T03:50:36;11.45;;;7.88;;
26538;SDS011;14205;43.200;24.170;2022-08-16T03:53:02;13.68;;;8.60;;
26538;SDS011;14205;43.200;24.170;2022-08-16T03:55:29;14.18;;;8.13;;
26538;SDS011;14205;43.200;24.170;2022-08-16T03:57:55;11.57;;;8.07;;
26538;SDS011;14205;43.200;24.170;2022-08-16T04:00:23;11.05;;;8.30;;
26538;SDS011;14205;43.200;24.170;2022-08-16T04:02:51;9.73;;;7.93;;
26538;SDS011;14205;43.200;24.170;2022-08-16T04:05:18;9.18;;;8.20;;
26538;SDS011;14205;43.200;24.170;2022-08-16T04:07:43;10.73;;;7.75;;
26538;SDS011;14205;43.200;24.170;2022-08-16T04:10:10;9.88;;;8.30;;
26538;SDS011;14205;43.200;24.170;2022-08-16T04:12:37;14.25;;;8.80;;
26538;SDS011;14205;43.200;24.170;2022-08-16T04:15:04;10.40;;;8.45;;
26538;SDS011;14205;43.200;24.170;2022-08-16T04:17:31;12.27;;;8.32;;
26538;SDS011;14205;43.200;24.170;2022-08-16T04:19:56;9.80;;;7.35;;
26538;SDS011;14205;43.200;24.170;2022-08-16T04:22:22;11.40;;;8.18;;
26538;SDS011;14205;43.200;24.170;2022-08-16T04:24:49;10.55;;;7.65;;
26538;SDS011;14205;43.200;24.170;2022-08-16T04:27:14;14.57;;;8.35;;
26538;SDS011;14205;43.200;24.170;2022-08-16T04:29:40;15.70;;;8.50;;
26538;SDS011;14205;43.200;24.170;2022-08-16T04:32:06;13.55;;;8.15;;
26538;SDS011;14205;43.200;24.170;2022-08-16T04:34:32;12.35;;;8.20;;
26538;SDS011;14205;43.200;24.170;2022-08-16T04:37:00;11.38;;;8.02;;
26538;SDS011;14205;43.200;24.170;2022-08-16T04:39:25;20.15;;;8.23;;
26538;SDS011;14205;43.200;24.170;2022-08-16T04:41:52;16.13;;;8.25;;
26538;SDS011;14205;43.200;24.170;2022-08-16T04:44:17;15.02;;;8.73;;
26538;SDS011;14205;43.200;24.170;2022-08-16T04:46:43;17.95;;;8.55;;
26538;SDS011;14205;43.200;24.170;2022-08-16T04:49:09;14.93;;;8.10;;
26538;SDS011;14205;43.200;24.170;2022-08-16T04:51:35;10.77;;;8.02;;
26538;SDS011;14205;43.200;24.170;2022-08-16T04:54:01;16.05;;;8.40;;
26538;SDS011;14205;43.200;24.170;2022-08-16T04:56:27;16.02;;;8.00;;
26538;SDS011;14205;43.200;24.170;2022-08-16T04:58:52;10.15;;;7.88;;
26538;SDS011;14205;43.200;24.170;2022-08-16T05:01:18;12.80;;;7.90;;
26538;SDS011;14205;43.200;24.170;2022-08-16T05:03:43;16.67;;;7.90;;
26538;SDS011;14205;43.200;24.170;2022-08-16T05:06:09;15.52;;;8.70;;
26538;SDS011;14205;43.200;24.170;2022-08-16T05:08:36;11.82;;;8.02;;
26538;SDS011;14205;43.200;24.170;2022-08-16T05:11:03;10.00;;;8.35;;
26538;SDS011;14205;43.200;24.170;2022-08-16T05:13:32;10.18;;;7.85;;
26538;SDS011;14205;43.200;24.170;2022-08-16T05:15:58;10.85;;;7.85;;
26538;SDS011;14205;43.200;24.170;2022-08-16T05:18:24;9.05;;;8.15;;
26538;SDS011;14205;43.200;24.170;2022-08-16T05:20:49;13.98;;;8.20;;
26538;SDS011;14205;43.200;24.170;2022-08-16T05:23:15;10.25;;;7.95;;
26538;SDS011;14205;43.200;24.170;2022-08-16T05:25:41;13.93;;;8.23;;
26538;SDS011;14205;43.200;24.170;2022-08-16T05:28:07;10.23;;;8.63;;
26538;SDS011;14205;43.200;24.170;2022-08-16T05:30:35;12.40;;;8.68;;
26538;SDS011;14205;43.200;24.170;2022-08-16T05:33:01;17.27;;;9.40;;
26538;SDS011;14205;43.200;24.170;2022-08-16T05:35:27;15.70;;;8.30;;
26538;SDS011;14205;43.200;24.170;2022-08-16T05:37:52;12.98;;;8.90;;
26538;SDS011;14205;43.200;24.170;2022-08-16T05:40:18;10.98;;;8.52;;
26538;SDS011;14205;43.200;24.170;2022-08-16T05:42:43;13.13;;;11.30;;
26538;SDS011;14205;43.200;24.170;2022-08-16T05:45:09;15.85;;;10.07;;
26538;SDS011;14205;43.200;24.170;2022-08-16T05:47:34;12.60;;;8.88;;
26538;SDS011;14205;43.200;24.170;2022-08-16T05:50:00;15.80;;;9.15;;
26538;SDS011;14205;43.200;24.170;2022-08-16T05:52:26;14.90;;;8.23;;
26538;SDS011;14205;43.200;24.170;2022-08-16T05:54:51;10.98;;;8.10;;
26538;SDS011;14205;43.200;24.170;2022-08-16T05:57:17;15.00;;;8.30;;
26538;SDS011;14205;43.200;24.170;2022-08-16T05:59:44;15.18;;;10.60;;
26538;SDS011;14205;43.200;24.170;2022-08-16T06:02:11;21.70;;;10.43;;
26538;SDS011;14205;43.200;24.170;2022-08-16T06:04:37;27.80;;;10.15;;
26538;SDS011;14205;43.200;24.170;2022-08-16T06:07:04;14.23;;;8.63;;
26538;SDS011;14205;43.200;24.170;2022-08-16T06:09:31;16.77;;;8.75;;
26538;SDS011;14205;43.200;24.170;2022-08-16T06:11:57;12.77;;;8.88;;
26538;SDS011;14205;43.200;24.170;2022-08-16T06:14:25;11.55;;;8.68;;
26538;SDS011;14205;43.200;24.170;2022-08-16T06:16:51;16.80;;;9.60;;
26538;SDS011;14205;43.200;24.170;2022-08-16T06:19:17;14.85;;;8.70;;
26538;SDS011;14205;43.200;24.170;2022-08-16T06:21:43;14.07;;;8.27;;
26538;SDS011;14205;43.200;24.170;2022-08-16T06:24:10;11.98;;;7.88;;
26538;SDS011;14205;43.200;24.170;2022-08-16T06:26:35;8.68;;;7.25;;
26538;SDS011;14205;43.200;24.170;2022-08-16T06:29:00;13.65;;;7.55;;
26538;SDS011;14205;43.200;24.170;2022-08-16T06:31:26;8.07;;;6.63;;
26538;SDS011;14205;43.200;24.170;2022-08-16T06:33:52;8.95;;;7.03;;
26538;SDS011;14205;43.200;24.170;2022-08-16T06:36:17;7.85;;;6.55;;
26538;SDS011;14205;43.200;24.170;2022-08-16T06:38:43;9.02;;;7.13;;
26538;SDS011;14205;43.200;24.170;2022-08-16T06:41:08;7.50;;;6.05;;
26538;SDS011;14205;43.200;24.170;2022-08-16T06:43:35;9.05;;;6.38;;
26538;SDS011;14205;43.200;24.170;2022-08-16T06:46:03;8.00;;;6.35;;
26538;SDS011;14205;43.200;24.170;2022-08-16T06:48:33;8.63;;;7.03;;
26538;SDS011;14205;43.200;24.170;2022-08-16T06:51:03;7.15;;;6.38;;
26538;SDS011;14205;43.200;24.170;2022-08-16T06:53:30;7.88;;;6.25;;
26538;SDS011;14205;43.200;24.170;2022-08-16T06:55:59;9.20;;;6.60;;
26538;SDS011;14205;43.200;24.170;2022-08-16T06:58:26;10.25;;;6.68;;
26538;SDS011;14205;43.200;24.170;2022-08-16T07:00:51;8.85;;;6.45;;
26538;SDS011;14205;43.200;24.170;2022-08-16T07:03:16;12.57;;;6.97;;
26538;SDS011;14205;43.200;24.170;2022-08-16T07:05:44;9.73;;;6.20;;
26538;SDS011;14205;43.200;24.170;2022-08-16T07:08:10;9.55;;;6.30;;
26538;SDS011;14205;43.200;24.170;2022-08-16T07:10:35;10.48;;;6.53;;
26538;SDS011;14205;43.200;24.170;2022-08-16T07:13:01;11.25;;;7.00;;
26538;SDS011;14205;43.200;24.170;2022-08-16T07:15:27;10.48;;;6.50;;
26538;SDS011;14205;43.200;24.170;2022-08-16T07:17:52;7.45;;;6.03;;
26538;SDS011;14205;43.200;24.170;2022-08-16T07:20:18;13.02;;;6.28;;
26538;SDS011;14205;43.200;24.170;2022-08-16T07:22:47;8.60;;;5.63;;
26538;SDS011;14205;43.200;24.170;2022-08-16T07:25:13;11.35;;;6.65;;
26538;SDS011;14205;43.200;24.170;2022-08-16T07:27:39;9.38;;;6.28;;
26538;SDS011;14205;43.200;24.170;2022-08-16T07:30:06;9.38;;;6.90;;
26538;SDS011;14205;43.200;24.170;2022-08-16T07:32:34;12.43;;;6.88;;
26538;SDS011;14205;43.200;24.170;2022-08-16T07:35:00;9.55;;;6.75;;
26538;SDS011;14205;43.200;24.170;2022-08-16T07:37:25;8.35;;;6.43;;
26538;SDS011;14205;43.200;24.170;2022-08-16T07:39:51;9.10;;;6.30;;
26538;SDS011;14205;43.200;24.170;2022-08-16T07:42:17;9.48;;;5.97;;
26538;SDS011;14205;43.200;24.170;2022-08-16T07:44:43;9.00;;;6.55;;
26538;SDS011;14205;43.200;24.170;2022-08-16T07:47:08;12.57;;;6.45;;
26538;SDS011;14205;43.200;24.170;2022-08-16T07:49:34;12.70;;;6.05;;
26538;SDS011;14205;43.200;24.170;2022-08-16T07:51:59;11.50;;;6.50;;
26538;SDS011;14205;43.200;24.170;2022-08-16T07:54:25;8.57;;;5.90;;
26538;SDS011;14205;43.200;24.170;2022-08-16T07:56:50;8.85;;;5.60;;
26538;SDS011;14205;43.200;24.170;2022-08-16T07:59:16;6.43;;;5.47;;
26538;SDS011;14205;43.200;24.170;2022-08-16T08:01:41;8.40;;;5.60;;
26538;SDS011;14205;43.200;24.170;2022-08-16T08:04:07;7.88;;;5.38;;
26538;SDS011;14205;43.200;24.170;2022-08-16T08:06:37;9.65;;;5.30;;
26538;SDS011;14205;43.200;24.170;2022-08-16T08:09:03;9.98;;;5.65;;
26538;SDS011;14205;43.200;24.170;2022-08-16T08:11:29;9.90;;;5.82;;
26538;SDS011;14205;43.200;24.170;2022-08-16T08:13:55;11.13;;;5.35;;
26538;SDS011;14205;43.200;24.170;2022-08-16T08:16:24;9.55;;;5.30;;
26538;SDS011;14205;43.200;24.170;2022-08-16T08:18:50;8.65;;;5.60;;
26538;SDS011;14205;43.200;24.170;2022-08-16T08:21:17;7.05;;;5.38;;
26538;SDS011;14205;43.200;24.170;2022-08-16T08:23:45;6.15;;;4.75;;
26538;SDS011;14205;43.200;24.170;2022-08-16T08:26:12;7.03;;;4.60;;
26538;SDS011;14205;43.200;24.170;2022-08-16T08:28:38;8.45;;;5.00;;
26538;SDS011;14205;43.200;24.170;2022-08-16T08:31:04;8.68;;;4.78;;
26538;SDS011;14205;43.200;24.170;2022-08-16T08:33:30;5.93;;;4.80;;
26538;SDS011;14205;43.200;24.170;2022-08-16T08:35:57;7.78;;;4.55;;
26538;SDS011;14205;43.200;24.170;2022-08-16T08:38:23;6.28;;;4.50;;
26538;SDS011;14205;43.200;24.170;2022-08-16T08:40:49;7.20;;;4.80;;
26538;SDS011;14205;43.200;24.170;2022-08-16T08:43:15;10.07;;;4.95;;
26538;SDS011;14205;43.200;24.170;2022-08-16T08:45:41;6.25;;;4.55;;
26538;SDS011;14205;43.200;24.170;2022-08-16T08:48:07;8.82;;;4.78;;
26538;SDS011;14205;43.200;24.170;2022-08-16T08:50:33;6.82;;;3.97;;
26538;SDS011;14205;43.200;24.170;2022-08-16T08:52:58;9.20;;;4.78;;
26538;SDS011;14205;43.200;24.170;2022-08-16T08:55:25;5.55;;;3.70;;
26538;SDS011;14205;43.200;24.170;2022-08-16T08:57:52;11.65;;;3.88;;
26538;SDS011;14205;43.200;24.170;2022-08-16T09:00:18;5.47;;;3.42;;
26538;SDS011;14205;43.200;24.170;2022-08-16T09:02:47;5.53;;;3.50;;
26538;SDS011;14205;43.200;24.170;2022-08-16T09:05:13;10.88;;;5.75;;
26538;SDS011;14205;43.200;24.170;2022-08-16T09:07:39;5.00;;;3.58;;
26538;SDS011;14205;43.200;24.170;2022-08-16T09:10:06;5.07;;;3.67;;
26538;SDS011;14205;43.200;24.170;2022-08-16T09:12:33;6.70;;;3.65;;
26538;SDS011;14205;43.200;24.170;2022-08-16T09:14:58;6.70;;;3.92;;
26538;SDS011;14205;43.200;24.170;2022-08-16T09:17:24;5.35;;;2.45;;
26538;SDS011;14205;43.200;24.170;2022-08-16T09:19:50;5.10;;;3.10;;
26538;SDS011;14205;43.200;24.170;2022-08-16T09:22:19;4.03;;;2.97;;
26538;SDS011;14205;43.200;24.170;2022-08-16T09:24:45;7.80;;;3.22;;
26538;SDS011;14205;43.200;24.170;2022-08-16T09:27:11;2.92;;;2.25;;
26538;SDS011;14205;43.200;24.170;2022-08-16T09:29:36;5.10;;;2.85;;
26538;SDS011;14205;43.200;24.170;2022-08-16T09:32:02;4.70;;;2.83;;
26538;SDS011;14205;43.200;24.170;2022-08-16T09:34:27;2.60;;;2.20;;
26538;SDS011;14205;43.200;24.170;2022-08-16T09:36:53;4.68;;;2.75;;
26538;SDS011;14205;43.200;24.170;2022-08-16T09:39:22;3.28;;;2.60;;
26538;SDS011;14205;43.200;24.170;2022-08-16T09:41:49;4.78;;;3.35;;
26538;SDS011;14205;43.200;24.170;2022-08-16T09:44:16;5.43;;;3.30;;
26538;SDS011;14205;43.200;24.170;2022-08-16T09:46:44;4.88;;;2.97;;
26538;SDS011;14205;43.200;24.170;2022-08-16T09:49:10;3.88;;;3.22;;
26538;SDS011;14205;43.200;24.170;2022-08-16T09:51:37;5.75;;;3.40;;
26538;SDS011;14205;43.200;24.170;2022-08-16T09:54:03;4.70;;;3.15;;
26538;SDS011;14205;43.200;24.170;2022-08-16T09:56:30;5.97;;;3.00;;
26538;SDS011;14205;43.200;24.170;2022-08-16T09:58:59;5.05;;;3.08;;
26538;SDS011;14205;43.200;24.170;2022-08-16T10:01:26;4.68;;;3.45;;
26538;SDS011;14205;43.200;24.170;2022-08-16T10:03:51;5.07;;;3.03;;
26538;SDS011;14205;43.200;24.170;2022-08-16T10:06:18;4.93;;;4.15;;
26538;SDS011;14205;43.200;24.170;2022-08-16T10:08:46;6.40;;;3.42;;
26538;SDS011;14205;43.200;24.170;2022-08-16T10:11:12;4.53;;;3.03;;
26538;SDS011;14205;43.200;24.170;2022-08-16T10:13:56;3.72;;;2.88;;
26538;SDS011;14205;43.200;24.170;2022-08-16T10:16:21;4.90;;;3.33;;
26538;SDS011;14205;43.200;24.170;2022-08-16T10:18:47;5.65;;;3.15;;
26538;SDS011;14205;43.200;24.170;2022-08-16T10:21:12;4.00;;;2.67;;
26538;SDS011;14205;43.200;24.170;2022-08-16T10:23:41;6.40;;;3.15;;
26538;SDS011;14205;43.200;24.170;2022-08-16T10:26:07;5.07;;;2.83;;
26538;SDS011;14205;43.200;24.170;2022-08-16T10:28:33;7.82;;;3.15;;
26538;SDS011;14205;43.200;24.170;2022-08-16T10:31:00;5.20;;;2.90;;
26538;SDS011;14205;43.200;24.170;2022-08-16T10:33:27;3.13;;;2.83;;
26538;SDS011;14205;43.200;24.170;2022-08-16T10:35:53;5.50;;;2.60;;
26538;SDS011;14205;43.200;24.170;2022-08-16T10:38:20;5.03;;;3.10;;
26538;SDS011;14205;43.200;24.170;2022-08-16T10:40:45;3.80;;;2.88;;
26538;SDS011;14205;43.200;24.170;2022-08-16T10:43:11;3.90;;;2.47;;
26538;SDS011;14205;43.200;24.170;2022-08-16T10:45:37;4.53;;;2.63;;
26538;SDS011;14205;43.200;24.170;2022-08-16T10:48:06;5.32;;;3.17;;
26538;SDS011;14205;43.200;24.170;2022-08-16T10:50:34;4.13;;;3.00;;
26538;SDS011;14205;43.200;24.170;2022-08-16T10:53:00;5.85;;;3.30;;
26538;SDS011;14205;43.200;24.170;2022-08-16T10:55:37;5.60;;;3.30;;
26538;SDS011;14205;43.200;24.170;2022-08-16T10:58:05;3.55;;;2.83;;
26538;SDS011;14205;43.200;24.170;2022-08-16T11:00:32;5.38;;;3.45;;
26538;SDS011;14205;43.200;24.170;2022-08-16T11:02:59;4.78;;;3.13;;
26538;SDS011;14205;43.200;24.170;2022-08-16T11:05:28;3.63;;;2.70;;
26538;SDS011;14205;43.200;24.170;2022-08-16T11:07:55;2.97;;;2.58;;
26538;SDS011;14205;43.200;24.170;2022-08-16T11:10:35;5.50;;;3.45;;
26538;SDS011;14205;43.200;24.170;2022-08-16T11:13:04;7.32;;;3.28;;
26538;SDS011;14205;43.200;24.170;2022-08-16T11:15:31;5.32;;;2.90;;
26538;SDS011;14205;43.200;24.170;2022-08-16T11:17:57;3.53;;;3.00;;
26538;SDS011;14205;43.200;24.170;2022-08-16T11:20:23;5.68;;;3.50;;
26538;SDS011;14205;43.200;24.170;2022-08-16T11:22:49;4.43;;;3.42;;
26538;SDS011;14205;43.200;24.170;2022-08-16T11:25:19;5.78;;;3.20;;
26538;SDS011;14205;43.200;24.170;2022-08-16T11:27:50;4.38;;;3.42;;
26538;SDS011;14205;43.200;24.170;2022-08-16T11:30:17;4.70;;;2.88;;
26538;SDS011;14205;43.200;24.170;2022-08-16T11:32:43;4.93;;;2.80;;
26538;SDS011;14205;43.200;24.170;2022-08-16T11:35:11;5.68;;;3.10;;
26538;SDS011;14205;43.200;24.170;2022-08-16T11:37:39;5.63;;;3.08;;
26538;SDS011;14205;43.200;24.170;2022-08-16T11:40:07;4.80;;;3.00;;
26538;SDS011;14205;43.200;24.170;2022-08-16T11:42:34;6.20;;;3.83;;
26538;SDS011;14205;43.200;24.170;2022-08-16T11:44:59;3.53;;;2.92;;
26538;SDS011;14205;43.200;24.170;2022-08-16T11:47:24;4.43;;;2.67;;
26538;SDS011;14205;43.200;24.170;2022-08-16T11:49:50;4.18;;;2.97;;
26538;SDS011;14205;43.200;24.170;2022-08-16T11:52:16;5.30;;;3.10;;
26538;SDS011;14205;43.200;24.170;2022-08-16T11:54:42;4.88;;;2.60;;
26538;SDS011;14205;43.200;24.170;2022-08-16T11:57:09;5.75;;;3.05;;
26538;SDS011;14205;43.200;24.170;2022-08-16T11:59:36;3.65;;;2.90;;
26538;SDS011;14205;43.200;24.170;2022-08-16T12:02:02;3.30;;;2.67;;
26538;SDS011;14205;43.200;24.170;2022-08-16T12:04:30;6.85;;;3.45;;
26538;SDS011;14205;43.200;24.170;2022-08-16T12:06:58;4.85;;;3.05;;
26538;SDS011;14205;43.200;24.170;2022-08-16T12:09:25;3.40;;;2.92;;
26538;SDS011;14205;43.200;24.170;2022-08-16T12:11:51;3.47;;;2.58;;
26538;SDS011;14205;43.200;24.170;2022-08-16T12:14:17;3.13;;;2.65;;
26538;SDS011;14205;43.200;24.170;2022-08-16T12:16:43;4.22;;;2.80;;
26538;SDS011;14205;43.200;24.170;2022-08-16T12:19:09;5.50;;;3.05;;
26538;SDS011;14205;43.200;24.170;2022-08-16T12:21:34;4.53;;;3.08;;
26538;SDS011;14205;43.200;24.170;2022-08-16T12:24:00;3.55;;;2.60;;
26538;SDS011;14205;43.200;24.170;2022-08-16T12:26:26;4.22;;;3.58;;
26538;SDS011;14205;43.200;24.170;2022-08-16T12:28:52;5.75;;;3.30;;
26538;SDS011;14205;43.200;24.170;2022-08-16T12:31:18;3.88;;;2.92;;
26538;SDS011;14205;43.200;24.170;2022-08-16T12:33:44;3.00;;;2.50;;
26538;SDS011;14205;43.200;24.170;2022-08-16T12:36:10;4.53;;;3.05;;
26538;SDS011;14205;43.200;24.170;2022-08-16T12:38:38;3.13;;;2.60;;
26538;SDS011;14205;43.200;24.170;2022-08-16T12:41:04;3.97;;;2.75;;
26538;SDS011;14205;43.200;24.170;2022-08-16T12:43:29;3.15;;;2.65;;
26538;SDS011;14205;43.200;24.170;2022-08-16T12:45:55;4.13;;;2.83;;
26538;SDS011;14205;43.200;24.170;2022-08-16T12:48:24;5.90;;;2.67;;
26538;SDS011;14205;43.200;24.170;2022-08-16T12:51:12;3.72;;;2.65;;
26538;SDS011;14205;43.200;24.170;2022-08-16T12:53:40;5.97;;;3.45;;
26538;SDS011;14205;43.200;24.170;2022-08-16T12:56:06;7.15;;;3.13;;
26538;SDS011;14205;43.200;24.170;2022-08-16T12:58:31;7.70;;;2.90;;
26538;SDS011;14205;43.200;24.170;2022-08-16T13:00:58;5.35;;;2.70;;
26538;SDS011;14205;43.200;24.170;2022-08-16T13:03:24;3.78;;;2.90;;
26538;SDS011;14205;43.200;24.170;2022-08-16T13:05:49;5.47;;;3.20;;
26538;SDS011;14205;43.200;24.170;2022-08-16T13:08:16;7.18;;;3.20;;
26538;SDS011;14205;43.200;24.170;2022-08-16T13:10:43;5.55;;;2.80;;
26538;SDS011;14205;43.200;24.170;2022-08-16T13:13:13;4.13;;;2.65;;
26538;SDS011;14205;43.200;24.170;2022-08-16T13:15:49;4.30;;;3.00;;
26538;SDS011;14205;43.200;24.170;2022-08-16T13:18:16;5.40;;;2.92;;
26538;SDS011;14205;43.200;24.170;2022-08-16T13:20:42;5.45;;;2.80;;
26538;SDS011;14205;43.200;24.170;2022-08-16T13:23:09;6.28;;;3.05;;
26538;SDS011;14205;43.200;24.170;2022-08-16T13:25:36;4.82;;;2.78;;
26538;SDS011;14205;43.200;24.170;2022-08-16T13:28:03;4.18;;;2.83;;
26538;SDS011;14205;43.200;24.170;2022-08-16T13:30:30;4.22;;;3.15;;
26538;SDS011;14205;43.200;24.170;2022-08-16T13:32:58;4.22;;;2.95;;
26538;SDS011;14205;43.200;24.170;2022-08-16T13:35:24;4.07;;;2.70;;
26538;SDS011;14205;43.200;24.170;2022-08-16T13:37:50;5.82;;;3.10;;
26538;SDS011;14205;43.200;24.170;2022-08-16T13:40:16;5.57;;;3.30;;
26538;SDS011;14205;43.200;24.170;2022-08-16T13:42:42;4.70;;;3.13;;
26538;SDS011;14205;43.200;24.170;2022-08-16T13:45:08;3.58;;;2.83;;
26538;SDS011;14205;43.200;24.170;2022-08-16T13:47:35;3.22;;;2.80;;
26538;SDS011;14205;43.200;24.170;2022-08-16T13:50:00;3.38;;;2.92;;
26538;SDS011;14205;43.200;24.170;2022-08-16T13:52:26;4.25;;;2.63;;
26538;SDS011;14205;43.200;24.170;2022-08-16T13:54:52;5.28;;;2.90;;
26538;SDS011;14205;43.200;24.170;2022-08-16T13:57:17;4.18;;;3.08;;
26538;SDS011;14205;43.200;24.170;2022-08-16T13:59:43;6.45;;;3.25;;
26538;SDS011;14205;43.200;24.170;2022-08-16T14:02:09;3.90;;;3.15;;
26538;SDS011;14205;43.200;24.170;2022-08-16T14:04:36;5.72;;;3.08;;
26538;SDS011;14205;43.200;24.170;2022-08-16T14:07:04;4.63;;;2.80;;
26538;SDS011;14205;43.200;24.170;2022-08-16T14:09:32;5.47;;;3.58;;
26538;SDS011;14205;43.200;24.170;2022-08-16T14:12:00;7.63;;;3.55;;
26538;SDS011;14205;43.200;24.170;2022-08-16T14:14:28;7.55;;;3.92;;
26538;SDS011;14205;43.200;24.170;2022-08-16T14:16:54;7.47;;;3.78;;
26538;SDS011;14205;43.200;24.170;2022-08-16T14:19:25;4.10;;;3.30;;
26538;SDS011;14205;43.200;24.170;2022-08-16T14:21:53;8.95;;;3.50;;
26538;SDS011;14205;43.200;24.170;2022-08-16T14:24:22;7.32;;;3.53;;
26538;SDS011;14205;43.200;24.170;2022-08-16T14:26:48;7.05;;;3.63;;